Time;durP1;ratioP1;P1;durP2;ratioP2;P2;SDS_P1;SDS_P2;PMS_P1;PMS_P2;Temp;Humidity;BMP_temperature;BMP_pressure;BME280_temperature;BME280_humidity;BME280_pressure;Samples;Min_cycle;Max_cycle;Signal;HPM_P1;HPM_P2
2021/05/12 00:00:57;;;;;;;17.97;13.80;;;;;;;19.23;57.82;99870.91;2069923;28;20018;-70
2021/05/12 00:01:58;;;;;;;17.43;13.37;;;;;;;19.23;57.81;99863.59;2071343;28;20166;-70
2021/05/12 00:02:59;;;;;;;18.53;14.63;;;;;;;19.22;57.88;99870.06;2072778;28;20025;-69
2021/05/12 00:04:00;;;;;;;16.35;14.23;;;;;;;19.22;57.93;99870.06;2071107;28;20013;-70
2021/05/12 00:05:00;;;;;;;19.30;15.97;;;;;;;19.21;57.86;99865.63;2075992;28;20054;-70
2021/05/12 00:06:01;;;;;;;18.73;14.87;;;;;;;19.21;57.86;99871.09;2071687;28;20531;-70
2021/05/12 00:07:01;;;;;;;15.33;13.27;;;;;;;19.21;57.66;99876.56;2076180;28;20021;-69
2021/05/12 00:08:02;;;;;;;16.43;14.07;;;;;;;19.21;57.93;99865.63;2071630;28;20055;-69
2021/05/12 00:09:02;;;;;;;18.27;13.97;;;;;;;19.21;57.92;99868.34;2072296;28;20026;-70
2021/05/12 00:10:05;;;;;;;18.27;14.47;;;;;;;19.21;57.84;99871.09;2072059;28;20041;-70
2021/05/12 00:11:05;;;;;;;17.48;14.10;;;;;;;19.22;57.86;99871.94;2076373;28;20033;-70
2021/05/12 00:12:07;;;;;;;17.97;14.37;;;;;;;19.20;57.81;99869.34;2074382;28;20104;-70
2021/05/12 00:13:07;;;;;;;17.15;14.10;;;;;;;19.21;57.90;99871.09;2071937;28;20056;-69
2021/05/12 00:14:08;;;;;;;17.67;14.07;;;;;;;19.20;57.91;99874.81;2072483;28;20033;-69
2021/05/12 00:15:13;;;;;;;15.75;14.05;;;;;;;19.21;57.87;99876.56;2077426;28;20025;-69
2021/05/12 00:16:13;;;;;;;17.63;14.40;;;;;;;19.21;57.82;99859.31;2068806;28;20030;-70
2021/05/12 00:17:18;;;;;;;17.17;13.47;;;;;;;19.20;57.88;99863.88;2071262;28;20101;-70
2021/05/12 00:18:23;;;;;;;18.08;14.65;;;;;;;19.20;57.76;99863.88;2071554;28;20096;-70
2021/05/12 00:19:23;;;;;;;17.63;14.68;;;;;;;19.19;57.76;99862.19;2071693;28;20034;-69
2021/05/12 00:20:28;;;;;;;17.07;14.70;;;;;;;19.20;57.86;99863.03;2071575;28;20026;-70
2021/05/12 00:21:44;;;;;;;16.67;14.40;;;;;;;19.18;57.86;99857.75;2071516;28;20036;-70
2021/05/12 00:24:00;;;;;;;17.83;13.55;;;;;;;19.18;57.86;99849.56;2067016;28;20034;-69
2021/05/12 00:25:03;;;;;;;16.80;14.52;;;;;;;19.19;57.84;99859.44;2070484;28;20022;-69
2021/05/12 00:26:04;;;;;;;14.73;13.05;;;;;;;19.19;57.85;99856.72;2071348;28;20029;-69
2021/05/12 00:27:04;;;;;;;16.50;14.27;;;;;;;19.19;57.70;99854.00;2072102;28;20128;-70
2021/05/12 00:28:05;;;;;;;18.67;14.40;;;;;;;19.18;57.83;99855.00;2070937;28;20080;-70
2021/05/12 00:29:11;;;;;;;18.10;14.43;;;;;;;19.17;57.79;99861.47;2075538;28;20030;-69
2021/05/12 00:30:15;;;;;;;15.57;13.48;;;;;;;19.17;57.78;99852.44;2071530;28;20028;-70
2021/05/12 00:31:15;;;;;;;17.42;14.50;;;;;;;19.18;57.79;99859.59;2074425;28;20025;-69
2021/05/12 00:32:16;;;;;;;18.20;14.50;;;;;;;19.18;57.81;99854.13;2070266;28;20026;-69
2021/05/12 00:33:17;;;;;;;17.07;14.90;;;;;;;19.17;57.73;99857.91;2079697;28;20037;-70
2021/05/12 00:34:17;;;;;;;17.37;13.83;;;;;;;19.18;57.86;99865.06;2069574;28;20053;-70
2021/05/12 00:35:18;;;;;;;19.03;15.43;;;;;;;19.17;57.81;99861.47;2072402;28;20026;-69
2021/05/12 00:36:18;;;;;;;16.67;14.43;;;;;;;19.16;57.80;99857.03;2073797;28;20084;-70
2021/05/12 00:37:19;;;;;;;18.20;15.33;;;;;;;19.17;57.75;99858.75;2069383;28;20029;-69
2021/05/12 00:38:19;;;;;;;19.87;15.23;;;;;;;19.17;57.69;99857.91;2060696;28;20029;-69
2021/05/12 00:39:20;;;;;;;17.97;14.27;;;;;;;19.17;57.72;99861.47;2054104;28;20022;-70
2021/05/12 00:40:21;;;;;;;18.97;15.20;;;;;;;19.16;57.59;99854.31;2062041;28;20033;-70
2021/05/12 00:41:21;;;;;;;18.80;14.50;;;;;;;19.17;57.75;99853.28;2071348;28;20744;-69
2021/05/12 00:42:27;;;;;;;18.53;14.60;;;;;;;19.15;57.73;99854.44;2075716;28;20048;-70
2021/05/12 00:43:28;;;;;;;17.30;14.95;;;;;;;19.17;57.73;99858.75;2073317;28;20814;-70
2021/05/12 00:44:28;;;;;;;17.50;14.73;;;;;;;19.16;57.79;99850.72;2076628;28;20029;-69
2021/05/12 00:45:29;;;;;;;17.43;15.20;;;;;;;19.16;57.70;99851.56;2072876;28;20068;-68
2021/05/12 00:46:29;;;;;;;17.03;14.10;;;;;;;19.14;57.74;99842.66;2072222;28;20057;-69
2021/05/12 00:47:32;;;;;;;16.93;13.93;;;;;;;19.14;57.76;99842.66;2075139;28;20105;-68
2021/05/12 00:48:33;;;;;;;19.40;15.07;;;;;;;19.14;57.76;99847.28;2072039;28;20057;-69
2021/05/12 00:49:34;;;;;;;18.45;15.75;;;;;;;19.14;57.74;99852.75;2068887;28;20072;-69
2021/05/12 00:50:35;;;;;;;16.52;13.70;;;;;;;19.15;57.79;99844.38;2072340;28;20025;-69
2021/05/12 00:51:35;;;;;;;16.77;14.97;;;;;;;19.13;57.69;99840.94;2072719;28;20168;-69
2021/05/12 00:52:37;;;;;;;17.30;14.40;;;;;;;19.12;57.66;99831.03;2072408;28;20863;-69
2021/05/12 00:53:37;;;;;;;17.70;15.00;;;;;;;19.13;57.74;99838.19;2075799;28;20052;-69
2021/05/12 00:54:38;;;;;;;15.67;13.97;;;;;;;19.13;57.69;99830.00;2077691;28;20033;-69
2021/05/12 00:55:39;;;;;;;16.67;14.70;;;;;;;19.14;57.56;99834.47;2071794;28;20068;-69
2021/05/12 00:56:42;;;;;;;17.67;14.53;;;;;;;19.13;57.71;99831.88;2074641;28;20033;-69
2021/05/12 00:57:43;;;;;;;16.88;14.60;;;;;;;19.13;57.91;99832.75;2070981;28;20021;-69
2021/05/12 00:58:45;;;;;;;17.73;14.50;;;;;;;19.13;57.71;99827.28;2071553;28;20026;-68
2021/05/12 00:59:47;;;;;;;16.40;13.90;;;;;;;19.12;57.84;99833.75;2071029;28;20034;-68
2021/05/12 01:00:47;;;;;;;;;;;;;;;19.09;57.77;99834.09;2074322;28;20032;-69
2021/05/12 01:01:48;;;;;;;17.67;15.02;;;;;;;19.08;57.79;99832.34;2067891;28;19967;-69
2021/05/12 01:02:49;;;;;;;19.77;15.57;;;;;;;19.09;57.70;99836.81;2070987;28;20115;-70
2021/05/12 01:03:50;;;;;;;17.52;15.02;;;;;;;19.09;57.81;99828.63;2070485;28;20119;-69
2021/05/12 01:04:51;;;;;;;18.07;14.00;;;;;;;19.10;57.67;99827.59;2078108;28;20095;-69
2021/05/12 01:05:52;;;;;;;18.00;15.73;;;;;;;19.11;57.70;99826.59;2072849;28;20260;-69
2021/05/12 01:06:52;;;;;;;18.87;15.77;;;;;;;19.12;57.62;99833.75;2071352;28;20092;-69
2021/05/12 01:07:53;;;;;;;18.60;15.53;;;;;;;19.12;57.63;99827.44;2073100;28;20021;-69
2021/05/12 01:08:54;;;;;;;20.23;15.60;;;;;;;19.11;57.58;99826.59;2068790;28;20060;-69
2021/05/12 01:09:54;;;;;;;19.47;17.37;;;;;;;19.10;57.53;99819.41;2071527;28;20898;-69
2021/05/12 01:10:57;;;;;;;18.73;14.97;;;;;;;19.10;57.68;99821.28;2075105;28;20032;-69
2021/05/12 01:11:57;;;;;;;18.90;16.50;;;;;;;19.10;57.64;99819.41;2070774;28;20026;-69
2021/05/12 01:12:58;;;;;;;21.20;16.13;;;;;;;19.10;57.56;99813.94;2070985;28;20152;-69
2021/05/12 01:13:59;;;;;;;18.03;16.07;;;;;;;19.11;57.42;99814.78;2071162;28;20045;-69
2021/05/12 01:15:00;;;;;;;18.77;16.77;;;;;;;19.11;57.43;99815.66;2063394;28;20261;-69
2021/05/12 01:16:00;;;;;;;19.93;16.37;;;;;;;19.10;57.31;99805.75;2067769;28;20034;-69
2021/05/12 01:17:01;;;;;;;20.40;16.70;;;;;;;19.11;57.53;99812.94;2068998;28;20452;-70
2021/05/12 01:18:07;;;;;;;19.80;16.13;;;;;;;19.11;57.55;99806.59;2072121;28;20048;-69
2021/05/12 01:19:07;;;;;;;19.35;16.67;;;;;;;19.10;57.46;99797.53;2071070;28;20180;-69
2021/05/12 01:20:10;;;;;;;19.50;16.17;;;;;;;19.10;57.37;99808.47;2073975;28;20040;-69
2021/05/12 01:21:11;;;;;;;21.17;15.95;;;;;;;19.10;57.54;99811.22;2077011;28;20033;-69
2021/05/12 01:22:11;;;;;;;19.37;16.57;;;;;;;19.10;57.50;99805.75;2077498;28;20052;-69
2021/05/12 01:23:12;;;;;;;19.47;15.97;;;;;;;19.10;57.37;99804.88;2078295;28;20296;-68
2021/05/12 01:24:13;;;;;;;18.20;16.10;;;;;;;19.10;57.53;99804.88;2076815;28;20029;-69
2021/05/12 01:25:13;;;;;;;18.43;16.27;;;;;;;19.09;57.49;99798.56;2079444;28;20029;-69
2021/05/12 01:26:16;;;;;;;19.03;16.07;;;;;;;19.09;57.41;99801.31;2071452;28;20026;-68
2021/05/12 01:27:17;;;;;;;19.45;16.20;;;;;;;19.09;57.38;99795.84;2076526;28;20025;-69
2021/05/12 01:28:18;;;;;;;18.40;15.60;;;;;;;19.09;57.48;99801.31;2076694;28;20049;-69
2021/05/12 01:29:19;;;;;;;19.15;16.15;;;;;;;19.08;57.46;99794.09;2072071;28;20099;-69
2021/05/12 01:30:21;;;;;;;19.53;15.83;;;;;;;19.08;57.46;99788.63;2074162;28;20059;-69
2021/05/12 01:31:38;;;;;;;21.38;16.45;;;;;;;19.07;57.41;99795.13;2073732;28;20025;-69
2021/05/12 01:32:38;;;;;;;20.50;16.77;;;;;;;19.08;57.41;99793.25;2071264;28;20048;-69
2021/05/12 01:33:40;;;;;;;18.20;15.40;;;;;;;19.07;57.45;99792.41;2072596;28;20021;-69
2021/05/12 01:34:41;;;;;;;18.50;15.80;;;;;;;19.08;57.48;99788.63;2074212;28;20025;-68
2021/05/12 01:35:41;;;;;;;17.97;15.60;;;;;;;19.07;57.50;99792.41;2070697;28;20076;-68
2021/05/12 01:36:43;;;;;;;19.67;16.93;;;;;;;19.08;57.44;99783.19;2074248;28;20033;-69
2021/05/12 01:37:43;;;;;;;;;;;;;;;19.02;57.52;99787.41;2067888;28;20038;-69
2021/05/12 01:38:45;;;;;;;18.65;15.30;;;;;;;19.03;57.50;99786.41;2069310;28;19925;-69
2021/05/12 01:39:46;;;;;;;15.75;14.07;;;;;;;19.04;57.58;99782.66;2070597;28;20100;-69
2021/05/12 01:40:47;;;;;;;20.60;15.87;;;;;;;19.05;57.50;99783.50;2073719;28;20034;-68
2021/05/12 01:41:47;;;;;;;20.63;15.67;;;;;;;19.04;57.58;99779.91;2069345;28;20022;-69
2021/05/12 01:42:48;;;;;;;17.23;15.20;;;;;;;19.04;57.54;99782.66;2075873;28;20018;-68
2021/05/12 01:43:50;;;;;;;20.63;15.53;;;;;;;19.05;57.56;99780.75;2075336;28;20041;-68
2021/05/12 01:44:50;;;;;;;;;;;;;;;19.02;57.51;99778.34;2078787;28;20099;-69
2021/05/12 01:45:51;;;;;;;18.70;15.93;;;;;;;19.02;57.44;99773.75;2072782;28;20015;-69
2021/05/12 01:46:51;;;;;;;17.07;14.40;;;;;;;19.01;57.38;99782.09;2068251;28;20029;-69
2021/05/12 01:47:52;;;;;;;17.30;15.03;;;;;;;19.03;57.51;99769.13;2071667;28;20072;-69
2021/05/12 01:48:52;;;;;;;18.40;16.17;;;;;;;19.04;57.73;99773.59;2070309;28;20428;-69
2021/05/12 01:49:59;;;;;;;18.13;15.33;;;;;;;19.03;57.50;99763.66;2070765;28;20444;-69
2021/05/12 01:50:59;;;;;;;16.45;14.65;;;;;;;19.05;57.46;99764.38;2062677;28;20026;-69
2021/05/12 01:52:00;;;;;;;17.47;15.57;;;;;;;19.03;57.10;99767.28;2067540;28;20024;-69
2021/05/12 01:53:00;;;;;;;17.90;15.13;;;;;;;19.04;57.33;99768.13;2061974;28;20054;-69
2021/05/12 01:54:01;;;;;;;19.87;16.37;;;;;;;19.04;57.40;99757.22;2072330;28;20025;-69
2021/05/12 01:55:02;;;;;;;18.75;15.70;;;;;;;19.05;57.43;99761.66;2072696;28;20105;-68
2021/05/12 01:56:04;;;;;;;17.70;15.75;;;;;;;19.06;57.30;99760.66;2069174;28;20833;-71
2021/05/12 01:57:04;;;;;;;17.40;14.90;;;;;;;19.05;57.34;99756.19;2061918;28;20590;-71
2021/05/12 01:58:05;;;;;;;19.47;15.13;;;;;;;19.04;57.43;99754.47;2063104;28;20179;-69
2021/05/12 01:59:07;;;;;;;18.80;15.90;;;;;;;19.04;57.26;99760.78;2073915;28;20032;-69
2021/05/12 02:00:22;;;;;;;16.52;14.70;;;;;;;19.03;57.41;99752.75;2071309;28;20501;-69
2021/05/12 02:01:22;;;;;;;17.60;15.05;;;;;;;19.02;57.35;99751.91;2067223;28;20057;-69
2021/05/12 02:02:23;;;;;;;18.17;15.10;;;;;;;19.03;57.43;99755.47;2077415;28;20113;-69
2021/05/12 02:03:24;;;;;;;18.67;14.67;;;;;;;19.03;57.36;99752.75;2072369;28;20389;-69
2021/05/12 02:04:25;;;;;;;17.20;15.13;;;;;;;19.03;57.33;99759.09;2069498;28;20029;-69
2021/05/12 02:05:27;;;;;;;17.00;14.43;;;;;;;19.05;57.27;99753.44;2072559;28;20165;-69
2021/05/12 02:06:27;;;;;;;;;;;;;;;18.99;57.51;99748.63;2075392;28;20034;-69
2021/05/12 02:07:29;;;;;;;17.02;13.82;;;;;;;18.99;57.45;99746.75;2072395;28;19912;-69
2021/05/12 02:08:30;;;;;;;17.98;14.45;;;;;;;18.99;57.51;99746.75;2071385;28;20033;-69
2021/05/12 02:09:38;;;;;;;16.67;14.43;;;;;;;18.99;57.53;99746.75;2069636;28;20112;-69
2021/05/12 02:10:42;;;;;;;17.88;15.32;;;;;;;19.00;57.43;99747.59;2071540;28;20268;-69
2021/05/12 02:11:42;;;;;;;16.60;14.18;;;;;;;19.00;57.38;99733.94;2074950;28;20381;-69
2021/05/12 02:12:43;;;;;;;16.87;14.63;;;;;;;19.00;57.32;99743.00;2072189;28;20032;-69
2021/05/12 02:13:44;;;;;;;16.60;14.10;;;;;;;19.00;57.31;99742.16;2069340;28;20229;-68
2021/05/12 02:14:45;;;;;;;17.47;14.43;;;;;;;19.00;57.40;99743.00;2076748;28;20029;-68
2021/05/12 02:15:46;;;;;;;15.13;13.45;;;;;;;19.00;57.41;99743.00;2073612;28;20138;-69
2021/05/12 02:16:46;;;;;;;17.00;14.52;;;;;;;19.00;57.48;99737.53;2070287;28;20691;-69
2021/05/12 02:17:47;;;;;;;15.10;12.73;;;;;;;19.01;57.45;99741.13;2067363;28;20025;-69
2021/05/12 02:18:48;;;;;;;16.13;14.07;;;;;;;19.00;57.40;99734.81;2062892;28;20030;-69
2021/05/12 02:19:48;;;;;;;17.20;14.20;;;;;;;19.00;57.36;99736.69;2069703;28;20026;-69
2021/05/12 02:20:49;;;;;;;16.53;14.63;;;;;;;19.00;57.29;99732.06;2071208;28;20028;-69
2021/05/12 02:21:49;;;;;;;15.48;13.50;;;;;;;19.00;57.61;99726.59;2073929;28;20022;-69
2021/05/12 02:22:50;;;;;;;15.40;13.50;;;;;;;19.01;57.36;99727.47;2072636;28;20026;-68
2021/05/12 02:23:50;;;;;;;17.73;14.77;;;;;;;19.00;57.23;99725.75;2076451;28;20508;-68
2021/05/12 02:24:51;;;;;;;16.60;14.40;;;;;;;19.00;57.32;99721.13;2070273;28;20014;-68
2021/05/12 02:25:52;;;;;;;16.47;14.33;;;;;;;19.00;57.25;99726.59;2073027;28;20032;-68
2021/05/12 02:26:52;;;;;;;15.83;14.10;;;;;;;19.00;57.19;99726.59;2071951;28;20030;-70
2021/05/12 02:27:53;;;;;;;15.93;14.07;;;;;;;19.00;57.30;99720.28;2070426;28;20026;-69
2021/05/12 02:28:53;;;;;;;18.07;14.43;;;;;;;19.00;57.21;99725.75;2063856;28;20033;-69
2021/05/12 02:29:56;;;;;;;15.93;13.37;;;;;;;18.99;57.23;99726.78;2066058;28;20104;-69
2021/05/12 02:30:56;;;;;;;15.68;13.32;;;;;;;18.99;57.14;99719.44;2074086;28;20022;-69
2021/05/12 02:31:57;;;;;;;15.73;14.03;;;;;;;18.99;57.32;99721.31;2070072;28;20053;-69
2021/05/12 02:32:58;;;;;;;17.83;14.57;;;;;;;19.00;57.33;99725.75;2072290;28;20022;-69
2021/05/12 02:33:58;;;;;;;17.57;14.57;;;;;;;18.98;57.23;99720.44;2061998;28;20053;-69
2021/05/12 02:34:59;;;;;;;16.07;14.37;;;;;;;18.98;57.23;99712.25;2064455;28;20424;-69
2021/05/12 02:35:59;;;;;;;19.33;15.67;;;;;;;18.98;57.20;99717.72;2070024;28;20017;-68
2021/05/12 02:37:00;;;;;;;17.47;14.37;;;;;;;18.99;57.29;99718.59;2064978;28;20026;-69
2021/05/12 02:38:01;;;;;;;17.93;15.93;;;;;;;18.98;57.22;99714.97;2075169;28;20047;-69
2021/05/12 02:39:03;;;;;;;18.80;15.13;;;;;;;18.98;57.14;99711.38;2075640;28;20803;-69
2021/05/12 02:40:07;;;;;;;15.70;13.35;;;;;;;18.99;57.21;99707.66;2071572;28;20404;-70
2021/05/12 02:41:07;;;;;;;15.90;14.02;;;;;;;18.99;57.22;99713.13;2063339;28;20030;-69
2021/05/12 02:42:08;;;;;;;17.23;14.37;;;;;;;18.99;57.11;99707.66;2069959;28;20026;-69
2021/05/12 02:43:08;;;;;;;17.93;14.57;;;;;;;18.97;57.21;99710.53;2073503;28;20140;-69
2021/05/12 02:44:09;;;;;;;18.93;15.53;;;;;;;18.99;57.06;99707.66;2071078;28;20488;-69
2021/05/12 02:45:10;;;;;;;16.80;14.37;;;;;;;18.98;57.14;99706.78;2071912;28;20109;-69
2021/05/12 02:46:10;;;;;;;16.05;13.60;;;;;;;18.99;57.07;99710.41;2075415;28;20793;-69
2021/05/12 02:47:11;;;;;;;15.57;13.33;;;;;;;18.98;57.15;99704.03;2069983;28;20034;-69
2021/05/12 02:48:12;;;;;;;16.63;13.87;;;;;;;18.98;57.06;99697.72;2071668;28;20060;-69
2021/05/12 02:49:12;;;;;;;16.83;13.87;;;;;;;18.97;57.16;99696.03;2069763;28;20067;-70
2021/05/12 02:50:13;;;;;;;18.97;14.93;;;;;;;18.98;57.16;99697.72;2063340;28;20050;-69
2021/05/12 02:51:13;;;;;;;16.20;13.93;;;;;;;18.97;57.15;99687.84;2068563;28;20049;-69
2021/05/12 02:52:14;;;;;;;17.87;14.60;;;;;;;18.96;57.01;99688.84;2072311;28;20554;-69
2021/05/12 02:53:15;;;;;;;16.53;13.63;;;;;;;18.97;57.27;99685.09;2072571;28;20018;-70
2021/05/12 02:54:15;;;;;;;16.53;13.37;;;;;;;18.97;57.17;99690.56;2070224;28;20781;-70
2021/05/12 02:55:16;;;;;;;15.20;13.10;;;;;;;18.96;57.09;99688.84;2064372;28;20121;-69
2021/05/12 02:56:16;;;;;;;15.83;14.00;;;;;;;18.96;57.25;99684.25;2063283;28;20034;-70
2021/05/12 02:57:17;;;;;;;16.53;14.27;;;;;;;18.95;57.17;99681.66;2070664;28;20077;-69
2021/05/12 02:58:18;;;;;;;16.77;14.00;;;;;;;18.97;57.07;99682.38;2072392;28;20554;-69
2021/05/12 02:59:18;;;;;;;17.07;14.37;;;;;;;18.96;57.14;99675.19;2078991;28;20100;-69
2021/05/12 03:00:22;;;;;;;16.53;13.77;;;;;;;18.96;57.11;99677.91;2067591;28;20052;-70
2021/05/12 03:01:23;;;;;;;16.50;13.63;;;;;;;18.98;57.05;99673.16;2066043;28;20591;-69
2021/05/12 03:02:23;;;;;;;16.03;13.10;;;;;;;18.96;56.96;99678.78;2070018;28;20424;-69
2021/05/12 03:03:24;;;;;;;15.83;13.20;;;;;;;18.96;56.97;99676.06;2071123;28;20554;-69
2021/05/12 03:04:25;;;;;;;17.13;13.90;;;;;;;18.95;57.06;99670.75;2070610;28;20699;-70
2021/05/12 03:05:29;;;;;;;17.27;13.43;;;;;;;18.95;57.06;99668.00;2071182;28;20595;-69
2021/05/12 03:06:29;;;;;;;15.82;13.10;;;;;;;18.95;57.11;99665.28;2074410;28;20112;-68
2021/05/12 03:07:30;;;;;;;15.80;12.93;;;;;;;18.95;57.01;99665.28;2067614;28;20037;-69
2021/05/12 03:08:30;;;;;;;17.13;14.37;;;;;;;18.93;57.00;99667.31;2060099;28;20029;-69
2021/05/12 03:09:31;;;;;;;14.90;13.27;;;;;;;18.93;57.05;99668.16;2070547;28;20030;-69
2021/05/12 03:10:33;;;;;;;18.73;13.93;;;;;;;18.94;57.10;99666.31;2068164;28;20041;-69
2021/05/12 03:11:34;;;;;;;18.52;13.27;;;;;;;18.93;57.03;99648.19;2073062;28;20029;-69
2021/05/12 03:12:35;;;;;;;14.30;12.40;;;;;;;18.94;57.11;99655.38;2069696;28;20029;-69
2021/05/12 03:13:35;;;;;;;16.00;14.10;;;;;;;18.94;56.88;99658.13;2072459;28;20037;-69
2021/05/12 03:14:36;;;;;;;15.57;13.50;;;;;;;18.94;57.09;99656.25;2072166;28;20022;-69
2021/05/12 03:15:37;;;;;;;16.42;13.68;;;;;;;18.94;57.07;99649.94;2072828;28;20026;-69
2021/05/12 03:16:38;;;;;;;15.60;13.07;;;;;;;18.93;57.05;99648.19;2067318;28;20588;-69
2021/05/12 03:17:39;;;;;;;15.17;12.87;;;;;;;18.93;57.03;99645.47;2072515;28;20267;-69
2021/05/12 03:18:39;;;;;;;14.47;12.77;;;;;;;18.93;57.16;99642.72;2064753;28;20478;-69
2021/05/12 03:19:40;;;;;;;15.63;13.23;;;;;;;18.92;57.03;99646.50;2070010;28;20054;-69
2021/05/12 03:20:40;;;;;;;13.80;12.30;;;;;;;18.92;57.01;99646.50;2069649;28;20022;-70
2021/05/12 03:21:41;;;;;;;15.13;12.30;;;;;;;18.91;57.08;99640.16;2074271;28;20600;-69
2021/05/12 03:22:41;;;;;;;13.93;11.53;;;;;;;18.93;57.12;99643.59;2067004;28;20388;-69
2021/05/12 03:23:42;;;;;;;13.93;12.27;;;;;;;18.93;57.01;99637.28;2067045;28;20182;-69
2021/05/12 03:24:42;;;;;;;13.50;12.07;;;;;;;18.92;57.01;99632.84;2070996;28;20018;-69
2021/05/12 03:25:42;;;;;;;14.17;12.03;;;;;;;18.93;56.95;99631.81;2074727;28;20674;-69
2021/05/12 03:26:43;;;;;;;12.60;11.07;;;;;;;18.92;57.13;99633.69;2070006;28;20075;-69
2021/05/12 03:27:44;;;;;;;15.37;12.60;;;;;;;18.92;57.17;99630.09;2070261;28;20392;-70
2021/05/12 03:28:45;;;;;;;13.27;11.18;;;;;;;18.92;57.11;99630.09;2076676;28;20021;-69
2021/05/12 03:29:45;;;;;;;12.83;11.07;;;;;;;18.91;57.06;99629.22;2068732;28;20045;-69
2021/05/12 03:30:46;;;;;;;14.77;11.83;;;;;;;18.91;57.19;99628.38;2073327;28;20034;-69
2021/05/12 03:31:47;;;;;;;13.30;11.37;;;;;;;18.91;57.09;99625.66;2075069;28;20040;-69
2021/05/12 03:32:48;;;;;;;13.97;11.67;;;;;;;18.92;57.13;99619.19;2071942;28;20029;-69
2021/05/12 03:33:49;;;;;;;12.93;11.55;;;;;;;18.91;57.22;99617.44;2077047;28;20025;-69
2021/05/12 03:34:49;;;;;;;13.03;11.40;;;;;;;18.92;57.19;99616.44;2070315;28;20037;-69
2021/05/12 03:35:50;;;;;;;13.60;11.37;;;;;;;18.91;57.15;99628.38;2078068;28;20029;-69
2021/05/12 03:36:50;;;;;;;12.83;11.50;;;;;;;18.91;57.24;99622.91;2073716;28;20612;-70
2021/05/12 03:37:50;;;;;;;13.43;11.60;;;;;;;18.91;57.12;99617.44;2074447;28;20101;-69
2021/05/12 03:38:52;;;;;;;14.53;11.83;;;;;;;18.90;57.15;99613.88;2078203;28;20035;-69
2021/05/12 03:39:52;;;;;;;14.48;11.30;;;;;;;18.89;57.17;99611.28;2073187;28;20021;-69
2021/05/12 03:40:53;;;;;;;13.43;11.63;;;;;;;18.89;57.15;99614.03;2074346;28;20053;-69
2021/05/12 03:41:54;;;;;;;13.60;12.00;;;;;;;18.89;57.13;99608.56;2071768;28;20033;-69
2021/05/12 03:42:56;;;;;;;13.83;11.90;;;;;;;18.90;57.14;99615.75;2075777;28;20052;-69
2021/05/12 03:43:57;;;;;;;12.90;11.50;;;;;;;18.90;57.14;99615.75;2079469;28;20029;-69
2021/05/12 03:44:57;;;;;;;15.03;11.53;;;;;;;18.90;56.98;99615.75;2074912;28;20854;-70
2021/05/12 03:45:58;;;;;;;13.97;12.43;;;;;;;18.91;57.09;99617.44;2070835;28;20025;-69
2021/05/12 03:46:58;;;;;;;16.00;11.67;;;;;;;18.90;57.03;99610.28;2071314;28;20017;-69
2021/05/12 03:47:59;;;;;;;14.90;13.33;;;;;;;18.90;56.97;99610.28;2067363;28;20053;-69
2021/05/12 03:48:59;;;;;;;15.27;13.00;;;;;;;18.91;56.99;99606.53;2067235;28;20438;-70
2021/05/12 03:50:01;;;;;;;14.10;11.97;;;;;;;18.89;57.03;99606.72;2063347;28;20018;-70
2021/05/12 03:51:02;;;;;;;14.85;12.07;;;;;;;18.89;56.94;99608.56;2071358;28;20029;-69
2021/05/12 03:52:03;;;;;;;13.67;10.90;;;;;;;18.90;56.98;99607.56;2076076;28;20030;-70
2021/05/12 03:53:03;;;;;;;15.43;12.20;;;;;;;18.90;56.86;99604.81;2078731;28;20076;-69
2021/05/12 03:54:04;;;;;;;13.17;11.17;;;;;;;18.89;56.97;99597.63;2067459;28;20026;-70
2021/05/12 03:55:07;;;;;;;12.73;10.73;;;;;;;18.88;56.96;99593.19;2066771;28;20504;-69
2021/05/12 03:56:07;;;;;;;13.65;11.43;;;;;;;18.89;56.99;99597.63;2071112;28;20152;-69
2021/05/12 03:57:08;;;;;;;14.50;11.93;;;;;;;18.89;56.77;99594.91;2071181;28;20025;-69
2021/05/12 03:58:08;;;;;;;13.70;11.53;;;;;;;18.89;56.94;99594.91;2071020;28;20026;-69
2021/05/12 03:59:09;;;;;;;12.97;11.27;;;;;;;18.89;57.00;99586.72;2078442;28;20025;-69
2021/05/12 04:00:11;;;;;;;13.17;11.57;;;;;;;18.89;56.87;99581.25;2075014;28;20030;-69
2021/05/12 04:01:11;;;;;;;13.27;11.73;;;;;;;18.87;56.95;99583.31;2068707;28;20640;-70
2021/05/12 04:02:12;;;;;;;13.97;12.43;;;;;;;18.87;56.94;99573.22;2053785;28;20407;-69
2021/05/12 04:03:13;;;;;;;14.67;12.30;;;;;;;18.87;57.01;99577.84;2055420;28;20058;-69
2021/05/12 04:04:16;;;;;;;14.75;12.13;;;;;;;18.86;57.02;99571.50;2075181;28;20514;-69
2021/05/12 04:05:17;;;;;;;13.68;11.52;;;;;;;18.86;56.93;99568.78;2074969;28;20087;-69
2021/05/12 04:06:17;;;;;;;14.57;11.90;;;;;;;18.87;56.96;99567.78;2073253;28;20099;-69
2021/05/12 04:07:17;;;;;;;12.63;11.27;;;;;;;18.87;56.90;99565.03;2071371;28;20033;-69
2021/05/12 04:08:18;;;;;;;13.43;11.47;;;;;;;18.87;56.89;99572.38;2071830;28;20038;-69
2021/05/12 04:09:18;;;;;;;13.60;11.80;;;;;;;18.87;56.89;99569.66;2073696;28;20033;-69
2021/05/12 04:10:19;;;;;;;13.67;11.23;;;;;;;18.87;56.94;99566.91;2072305;28;20064;-69
2021/05/12 04:11:20;;;;;;;13.05;11.68;;;;;;;18.87;56.93;99572.38;2073650;28;20026;-70
2021/05/12 04:12:21;;;;;;;13.77;12.27;;;;;;;18.87;56.72;99567.78;2074282;28;20029;-70
2021/05/12 04:13:21;;;;;;;13.57;11.80;;;;;;;18.87;56.85;99569.66;2070950;28;20034;-69
2021/05/12 04:14:22;;;;;;;13.07;11.23;;;;;;;18.85;56.94;99565.19;2061878;28;20030;-69
2021/05/12 04:15:23;;;;;;;14.50;12.37;;;;;;;18.87;56.85;99569.66;2070713;28;20111;-69
2021/05/12 04:16:23;;;;;;;14.45;11.63;;;;;;;18.85;56.90;99567.91;2071607;28;20113;-69
2021/05/12 04:17:26;;;;;;;12.73;10.90;;;;;;;18.86;56.84;99568.78;2071366;28;20034;-69
2021/05/12 04:18:27;;;;;;;13.30;10.75;;;;;;;18.85;56.85;99554.25;2063806;28;20120;-69
2021/05/12 04:19:27;;;;;;;12.38;10.57;;;;;;;18.85;56.86;99565.19;2074754;28;20022;-69
2021/05/12 04:20:28;;;;;;;13.57;12.07;;;;;;;18.85;56.87;99559.72;2071243;28;20034;-69
2021/05/12 04:21:29;;;;;;;13.23;11.43;;;;;;;18.85;56.85;99567.91;2072875;28;20033;-69
2021/05/12 04:22:29;;;;;;;12.30;10.50;;;;;;;18.84;56.84;99562.66;2070629;28;20032;-69
2021/05/12 04:23:30;;;;;;;13.33;10.90;;;;;;;18.84;56.76;99568.94;2071805;28;20083;-70
2021/05/12 04:24:31;;;;;;;12.90;11.20;;;;;;;18.83;56.62;99563.63;2071621;28;20030;-69
2021/05/12 04:25:33;;;;;;;12.60;11.05;;;;;;;18.85;56.88;99567.06;2071507;28;20113;-69
2021/05/12 04:26:33;;;;;;;14.80;12.18;;;;;;;18.84;56.88;99568.94;2075999;28;20123;-69
2021/05/12 04:27:33;;;;;;;12.50;11.10;;;;;;;18.84;56.96;99568.94;2075537;28;20025;-70
2021/05/12 04:28:34;;;;;;;11.47;10.10;;;;;;;18.84;56.96;99574.41;2071690;28;20156;-69
2021/05/12 04:29:36;;;;;;;13.23;11.40;;;;;;;18.84;56.70;99571.69;2073750;28;20058;-69
2021/05/12 04:30:36;;;;;;;13.65;11.27;;;;;;;18.84;56.83;99576.28;2075125;28;20346;-69
2021/05/12 04:31:38;;;;;;;12.33;10.67;;;;;;;18.84;56.91;99574.41;2071711;28;20180;-70
2021/05/12 04:32:41;;;;;;;;;;;;;;;18.80;56.84;99586.66;2070859;28;20032;-70
2021/05/12 04:33:42;;;;;;;12.82;10.82;;;;;;;18.79;56.92;99576.78;2071505;28;20280;-69
2021/05/12 04:34:42;;;;;;;12.60;11.07;;;;;;;18.80;56.88;99577.63;2072104;28;20033;-70
2021/05/12 04:35:43;;;;;;;12.03;10.73;;;;;;;18.80;56.87;99572.16;2069992;28;20037;-70
2021/05/12 04:36:43;;;;;;;12.67;10.73;;;;;;;18.81;56.85;99572.00;2071504;28;20616;-69
2021/05/12 04:37:43;;;;;;;13.13;10.30;;;;;;;18.81;56.88;99574.75;2070435;28;20033;-70
2021/05/12 04:38:44;;;;;;;13.83;10.93;;;;;;;18.81;56.87;99569.28;2077355;28;20057;-70
2021/05/12 04:39:44;;;;;;;12.43;11.10;;;;;;;18.81;56.88;99568.41;2070609;28;20061;-69
2021/05/12 04:40:45;;;;;;;14.00;9.87;;;;;;;18.81;56.81;99582.94;2071273;28;20029;-67
2021/05/12 04:41:45;;;;;;;12.67;10.90;;;;;;;18.82;56.95;99576.44;2071206;28;20558;-70
2021/05/12 04:42:47;;;;;;;12.60;10.63;;;;;;;18.81;56.90;99574.75;2070598;28;20823;-69
2021/05/12 04:43:48;;;;;;;12.15;10.55;;;;;;;18.82;56.86;99581.06;2071310;28;20034;-70